Norrland — C4KF2 — position and weather

sailwx.info

Track history (hours):
 
Tides and Currents Weather Stations Pressure Air Temp Water Temp Dewpoint Dewpoint Depression Visibility Wind Speed Wind Dir Waves Ship Positions

Norrland

Last reported at 2016-Mar-30 21:33 UTC. Time now 2016-May-01 00:21 UTC.
Position N 55°41' E 015°36'.
Warning: this ship's position is 31 days out of date.

Length 118 m; draft 4.2 m.

Type: Cargo ship. MMSI: 212521000.

Date/timePositionNaut miles runAvg speedWind from/ knotsBaromVisibWave heightAir tempDewpointWater temp
2016-Mar-30 21:33N 55°41' E 015°36'1110.6
2016-Mar-30 20:31N 55°36' E 015°19'1010.6
2016-Mar-30 19:34N 55°31' E 015°03'1110.5
2016-Mar-30 18:34N 55°25' E 014°47'1010.3
2016-Mar-30 17:33N 55°19' E 014°33'1110.6
2016-Mar-30 16:34N 55°12' E 014°20'1211.7
2016-Mar-30 15:33N 55°11' E 013°59'1212.0
2016-Mar-30 14:33N 55°11' E 013°38'1712.1
2016-Mar-30 13:10N 55°12' E 013°09'1011.9
2016-Mar-30 12:22N 55°15' E 012°53'1011.5
2016-Mar-30 11:33N 55°19' E 012°38'1111.0
2016-Mar-30 10:34N 55°29' E 012°33'7 7.1
2016-Mar-30 09:33N 55°36' E 012°29'0 0.0
2016-Mar-30 08:33N 55°36' E 012°29'0 0.0
2016-Mar-30 07:33N 55°36' E 012°29'0 0.0
2016-Mar-30 06:33N 55°36' E 012°29'0 0.0
2016-Mar-30 05:33N 55°36' E 012°29'0 0.0
2016-Mar-30 04:33N 55°36' E 012°29'0 0.0
2016-Mar-30 03:33N 55°36' E 012°29'0 0.0
2016-Mar-30 02:33N 55°36' E 012°29'0 0.0
2016-Mar-30 01:33N 55°36' E 012°29'0 0.0
2016-Mar-30 00:33N 55°36' E 012°29'0 0.0
2016-Mar-29 23:33N 55°36' E 012°29'0 0.0
2016-Mar-29 22:33N 55°36' E 012°29'0 0.0
2016-Mar-29 21:33N 55°36' E 012°29'0 0.0
2016-Mar-29 20:33N 55°36' E 012°29'0 0.0
2016-Mar-29 19:33N 55°36' E 012°29'0 0.0
2016-Mar-29 18:33N 55°36' E 012°29'0 0.0
2016-Mar-29 17:33N 55°36' E 012°29'0 0.0
2016-Mar-29 16:33N 55°36' E 012°29'0 0.0
2016-Mar-29 15:33N 55°36' E 012°29'0 0.0
2016-Mar-29 14:33N 55°36' E 012°29'0 0.0
2016-Mar-29 13:33N 55°36' E 012°29'0 0.0
2016-Mar-29 12:33N 55°36' E 012°29'0 0.0
2016-Mar-29 11:33N 55°36' E 012°29'0 0.0
2016-Mar-29 10:33N 55°36' E 012°29'0 0.0
2016-Mar-29 09:33N 55°36' E 012°29'0 0.0
2016-Mar-29 08:33N 55°36' E 012°29'0 0.0
2016-Mar-29 07:33N 55°36' E 012°29'0 0.0
2016-Mar-29 06:33N 55°36' E 012°29'0 0.1
2016-Mar-29 05:33N 55°36' E 012°29'3 3.2
2016-Mar-29 04:33N 55°33' E 012°30'8 7.8
2016-Mar-29 03:34N 55°30' E 012°42'7 6.9
2016-Mar-29 02:33N 55°23' E 012°42'6 6.5
2016-Mar-29 01:33N 55°17' E 012°47'8 8.1
2016-Mar-29 00:33N 55°16' E 013°01'8 8.0
2016-Mar-28 23:33N 55°15' E 013°15'8 8.3
2016-Mar-28 22:33N 55°15' E 013°30'8 8.2
2016-Mar-28 21:33N 55°14' E 013°44'8 8.3
2016-Mar-28 20:33N 55°14' E 013°58'8 8.5
2016-Mar-28 19:33N 55°14' E 014°13'9 8.7
2016-Mar-28 18:33N 55°20' E 014°24'1110.7
2016-Mar-28 17:33N 55°27' E 014°37'1111.0
2016-Mar-28 16:33N 55°33' E 014°54'1111.3
2016-Mar-28 15:33N 55°38' E 015°12'1211.5
2016-Mar-28 14:33N 55°44' E 015°30'  
2016-Mar-25 07:21N 55°41' E 015°33'911.4
2016-Mar-25 06:33N 55°36' E 015°19'1212.1
2016-Mar-25 05:33N 55°30' E 015°00'1212.1
2016-Mar-25 04:33N 55°24' E 014°42'1211.9
2016-Mar-25 03:33N 55°15' E 014°29'1110.5
2016-Mar-25 02:33N 55°11' E 014°12'1212.0
2016-Mar-25 01:33N 55°11' E 013°51'3611.9
2016-Mar-24 22:33N 55°15' E 012°49'1010.5
2016-Mar-24 21:33N 55°22' E 012°35'1110.8
2016-Mar-24 20:33N 55°33' E 012°30'3 3.5
2016-Mar-24 19:33N 55°36' E 012°29'0 0.0
2016-Mar-24 18:33N 55°36' E 012°29'0 0.0
2016-Mar-24 17:33N 55°36' E 012°29'0 0.0
2016-Mar-24 16:33N 55°36' E 012°29'0 0.0
2016-Mar-24 15:33N 55°36' E 012°29'0 0.0
2016-Mar-24 14:33N 55°36' E 012°29'0 0.0
2016-Mar-24 13:33N 55°36' E 012°29'0 0.0
2016-Mar-24 12:33N 55°36' E 012°29'0 0.0
2016-Mar-24 11:33N 55°36' E 012°29'0 0.0
2016-Mar-24 10:33N 55°36' E 012°29'0 0.0
2016-Mar-24 09:33N 55°36' E 012°29'0 0.0
2016-Mar-24 08:33N 55°36' E 012°29'0 0.0
2016-Mar-24 07:33N 55°36' E 012°29'0 0.0
2016-Mar-24 06:33N 55°36' E 012°29'0 0.0
2016-Mar-24 05:30N 55°36' E 012°29'0 0.0
2016-Mar-24 04:33N 55°36' E 012°29'0 0.0
2016-Mar-24 03:33N 55°36' E 012°29'0 0.0
2016-Mar-24 02:33N 55°36' E 012°29'0 0.0
2016-Mar-24 01:33N 55°36' E 012°29'0 0.0
2016-Mar-24 00:33N 55°36' E 012°29'0 0.0
2016-Mar-23 23:33N 55°36' E 012°29'0 0.0
2016-Mar-23 22:33N 55°36' E 012°29'0 0.0
2016-Mar-23 21:33N 55°36' E 012°29'0 0.0
2016-Mar-23 20:30N 55°36' E 012°29'0 0.0
2016-Mar-23 19:33N 55°36' E 012°29'0 0.0
2016-Mar-23 18:33N 55°36' E 012°29'0 0.0
2016-Mar-23 17:33N 55°36' E 012°29'0 0.0
2016-Mar-23 16:33N 55°36' E 012°29'0 0.0
2016-Mar-23 15:33N 55°36' E 012°29'0 0.0
2016-Mar-23 14:33N 55°36' E 012°29'0 0.0
2016-Mar-23 13:33N 55°36' E 012°29'0 0.0
2016-Mar-23 12:33N 55°36' E 012°29'0 0.0
2016-Mar-23 11:33N 55°36' E 012°29'0 0.0
2016-Mar-23 10:33N 55°36' E 012°29'0 0.0
2016-Mar-23 09:33N 55°36' E 012°29'0 0.0
2016-Mar-23 08:33N 55°36' E 012°29'0 0.0
2016-Mar-23 07:33N 55°36' E 012°29'0 0.0
2016-Mar-23 06:33N 55°36' E 012°29'0 0.2
2016-Mar-23 05:33N 55°36' E 012°29'8 8.0
2016-Mar-23 04:34N 55°29' E 012°36'9 8.6
2016-Mar-23 03:33N 55°21' E 012°41'9 9.5
2016-Mar-23 02:34N 55°16' E 012°56'1110.5
2016-Mar-23 01:33N 55°15' E 013°14'1010.4
2016-Mar-23 00:33N 55°15' E 013°32'1010.4
2016-Mar-22 23:33N 55°14' E 013°51'1110.5
2016-Mar-22 22:33N 55°14' E 014°09'10 9.9
2016-Mar-22 21:33N 55°19' E 014°24'1111.3
2016-Mar-22 20:33N 55°27' E 014°38'1111.3
2016-Mar-22 19:33N 55°33' E 014°55'1111.5
2016-Mar-22 18:33N 55°39' E 015°12'  
Track history (hours):
 
Tides and Currents Weather Stations Pressure Air Temp Water Temp Dewpoint Dewpoint Depression Visibility Wind Speed Wind Dir Waves Ship Positions

Norrland

Last reported at 2016-Mar-30 21:33 UTC. Time now 2016-May-01 00:21 UTC.
Position N 55°41' E 015°36'.
Warning: this ship's position is 31 days out of date.

Length 118 m; draft 4.2 m.

Type: Cargo ship. MMSI: 212521000.

Date/timePositionNaut miles runAvg speedWind from/ knotsBaromVisibWave heightAir tempDewpointWater temp
2016-Mar-30 21:33N 55°41' E 015°36'1110.6
2016-Mar-30 20:31N 55°36' E 015°19'1010.6
2016-Mar-30 19:34N 55°31' E 015°03'1110.5
2016-Mar-30 18:34N 55°25' E 014°47'1010.3
2016-Mar-30 17:33N 55°19' E 014°33'1110.6
2016-Mar-30 16:34N 55°12' E 014°20'1211.7
2016-Mar-30 15:33N 55°11' E 013°59'1212.0
2016-Mar-30 14:33N 55°11' E 013°38'1712.1
2016-Mar-30 13:10N 55°12' E 013°09'1011.9
2016-Mar-30 12:22N 55°15' E 012°53'1011.5
2016-Mar-30 11:33N 55°19' E 012°38'1111.0
2016-Mar-30 10:34N 55°29' E 012°33'7 7.1
2016-Mar-30 09:33N 55°36' E 012°29'0 0.0
2016-Mar-30 08:33N 55°36' E 012°29'0 0.0
2016-Mar-30 07:33N 55°36' E 012°29'0 0.0
2016-Mar-30 06:33N 55°36' E 012°29'0 0.0
2016-Mar-30 05:33N 55°36' E 012°29'0 0.0
2016-Mar-30 04:33N 55°36' E 012°29'0 0.0
2016-Mar-30 03:33N 55°36' E 012°29'0 0.0
2016-Mar-30 02:33N 55°36' E 012°29'0 0.0
2016-Mar-30 01:33N 55°36' E 012°29'0 0.0
2016-Mar-30 00:33N 55°36' E 012°29'0 0.0
2016-Mar-29 23:33N 55°36' E 012°29'0 0.0
2016-Mar-29 22:33N 55°36' E 012°29'0 0.0
2016-Mar-29 21:33N 55°36' E 012°29'0 0.0
2016-Mar-29 20:33N 55°36' E 012°29'0 0.0
2016-Mar-29 19:33N 55°36' E 012°29'0 0.0
2016-Mar-29 18:33N 55°36' E 012°29'0 0.0
2016-Mar-29 17:33N 55°36' E 012°29'0 0.0
2016-Mar-29 16:33N 55°36' E 012°29'0 0.0
2016-Mar-29 15:33N 55°36' E 012°29'0 0.0
2016-Mar-29 14:33N 55°36' E 012°29'0 0.0
2016-Mar-29 13:33N 55°36' E 012°29'0 0.0
2016-Mar-29 12:33N 55°36' E 012°29'0 0.0
2016-Mar-29 11:33N 55°36' E 012°29'0 0.0
2016-Mar-29 10:33N 55°36' E 012°29'0 0.0
2016-Mar-29 09:33N 55°36' E 012°29'0 0.0
2016-Mar-29 08:33N 55°36' E 012°29'0 0.0
2016-Mar-29 07:33N 55°36' E 012°29'0 0.0
2016-Mar-29 06:33N 55°36' E 012°29'0 0.1
2016-Mar-29 05:33N 55°36' E 012°29'3 3.2
2016-Mar-29 04:33N 55°33' E 012°30'8 7.8
2016-Mar-29 03:34N 55°30' E 012°42'7 6.9
2016-Mar-29 02:33N 55°23' E 012°42'6 6.5
2016-Mar-29 01:33N 55°17' E 012°47'8 8.1
2016-Mar-29 00:33N 55°16' E 013°01'8 8.0
2016-Mar-28 23:33N 55°15' E 013°15'8 8.3
2016-Mar-28 22:33N 55°15' E 013°30'8 8.2
2016-Mar-28 21:33N 55°14' E 013°44'8 8.3
2016-Mar-28 20:33N 55°14' E 013°58'8 8.5
2016-Mar-28 19:33N 55°14' E 014°13'9 8.7
2016-Mar-28 18:33N 55°20' E 014°24'1110.7
2016-Mar-28 17:33N 55°27' E 014°37'1111.0
2016-Mar-28 16:33N 55°33' E 014°54'1111.3
2016-Mar-28 15:33N 55°38' E 015°12'1211.5
2016-Mar-28 14:33N 55°44' E 015°30'  
2016-Mar-25 07:21N 55°41' E 015°33'911.4
2016-Mar-25 06:33N 55°36' E 015°19'1212.1
2016-Mar-25 05:33N 55°30' E 015°00'1212.1
2016-Mar-25 04:33N 55°24' E 014°42'1211.9
2016-Mar-25 03:33N 55°15' E 014°29'1110.5
2016-Mar-25 02:33N 55°11' E 014°12'1212.0
2016-Mar-25 01:33N 55°11' E 013°51'3611.9
2016-Mar-24 22:33N 55°15' E 012°49'1010.5
2016-Mar-24 21:33N 55°22' E 012°35'1110.8
2016-Mar-24 20:33N 55°33' E 012°30'3 3.5
2016-Mar-24 19:33N 55°36' E 012°29'0 0.0
2016-Mar-24 18:33N 55°36' E 012°29'0 0.0
2016-Mar-24 17:33N 55°36' E 012°29'0 0.0
2016-Mar-24 16:33N 55°36' E 012°29'0 0.0
2016-Mar-24 15:33N 55°36' E 012°29'0 0.0
2016-Mar-24 14:33N 55°36' E 012°29'0 0.0
2016-Mar-24 13:33N 55°36' E 012°29'0 0.0
2016-Mar-24 12:33N 55°36' E 012°29'0 0.0
2016-Mar-24 11:33N 55°36' E 012°29'0 0.0
2016-Mar-24 10:33N 55°36' E 012°29'0 0.0
2016-Mar-24 09:33N 55°36' E 012°29'0 0.0
2016-Mar-24 08:33N 55°36' E 012°29'0 0.0
2016-Mar-24 07:33N 55°36' E 012°29'0 0.0
2016-Mar-24 06:33N 55°36' E 012°29'0 0.0
2016-Mar-24 05:30N 55°36' E 012°29'0 0.0
2016-Mar-24 04:33N 55°36' E 012°29'0 0.0
2016-Mar-24 03:33N 55°36' E 012°29'0 0.0
2016-Mar-24 02:33N 55°36' E 012°29'0 0.0
2016-Mar-24 01:33N 55°36' E 012°29'0 0.0
2016-Mar-24 00:33N 55°36' E 012°29'0 0.0
2016-Mar-23 23:33N 55°36' E 012°29'0 0.0
2016-Mar-23 22:33N 55°36' E 012°29'0 0.0
2016-Mar-23 21:33N 55°36' E 012°29'0 0.0
2016-Mar-23 20:30N 55°36' E 012°29'0 0.0
2016-Mar-23 19:33N 55°36' E 012°29'0 0.0
2016-Mar-23 18:33N 55°36' E 012°29'0 0.0
2016-Mar-23 17:33N 55°36' E 012°29'0 0.0
2016-Mar-23 16:33N 55°36' E 012°29'0 0.0
2016-Mar-23 15:33N 55°36' E 012°29'0 0.0
2016-Mar-23 14:33N 55°36' E 012°29'0 0.0
2016-Mar-23 13:33N 55°36' E 012°29'0 0.0
2016-Mar-23 12:33N 55°36' E 012°29'0 0.0
2016-Mar-23 11:33N 55°36' E 012°29'0 0.0
2016-Mar-23 10:33N 55°36' E 012°29'0 0.0
2016-Mar-23 09:33N 55°36' E 012°29'0 0.0
2016-Mar-23 08:33N 55°36' E 012°29'0 0.0
2016-Mar-23 07:33N 55°36' E 012°29'0 0.0
2016-Mar-23 06:33N 55°36' E 012°29'0 0.2
2016-Mar-23 05:33N 55°36' E 012°29'8 8.0
2016-Mar-23 04:34N 55°29' E 012°36'9 8.6
2016-Mar-23 03:33N 55°21' E 012°41'9 9.5
2016-Mar-23 02:34N 55°16' E 012°56'1110.5
2016-Mar-23 01:33N 55°15' E 013°14'1010.4
2016-Mar-23 00:33N 55°15' E 013°32'1010.4
2016-Mar-22 23:33N 55°14' E 013°51'1110.5
2016-Mar-22 22:33N 55°14' E 014°09'10 9.9
2016-Mar-22 21:33N 55°19' E 014°24'1111.3
2016-Mar-22 20:33N 55°27' E 014°38'1111.3
2016-Mar-22 19:33N 55°33' E 014°55'1111.5
2016-Mar-22 18:33N 55°39' E 015°12'  

Dump ship's entire track history